sensor_id;sensor_type;location;lat;lon;timestamp;pressure;altitude;pressure_sealevel;temperature;humidity
35023;BME280;21214;44.912;8.204;2023-12-28T00:00:15;100782.75;;;7.92;100.00
35023;BME280;21214;44.912;8.204;2023-12-28T00:02:41;100767.84;;;7.92;100.00
35023;BME280;21214;44.912;8.204;2023-12-28T00:05:07;100766.06;;;7.93;100.00
35023;BME280;21214;44.912;8.204;2023-12-28T00:07:32;100773.09;;;7.92;100.00
35023;BME280;21214;44.912;8.204;2023-12-28T00:09:58;100770.38;;;7.94;100.00
35023;BME280;21214;44.912;8.204;2023-12-28T00:12:23;100767.75;;;7.94;100.00
35023;BME280;21214;44.912;8.204;2023-12-28T00:14:49;100772.06;;;7.95;100.00
35023;BME280;21214;44.912;8.204;2023-12-28T00:17:15;100767.44;;;7.98;100.00
35023;BME280;21214;44.912;8.204;2023-12-28T00:19:40;100770.00;;;8.00;100.00
35023;BME280;21214;44.912;8.204;2023-12-28T00:22:06;100769.69;;;8.04;100.00
35023;BME280;21214;44.912;8.204;2023-12-28T00:24:31;100770.53;;;8.05;100.00
35023;BME280;21214;44.912;8.204;2023-12-28T00:26:57;100766.22;;;8.04;100.00
35023;BME280;21214;44.912;8.204;2023-12-28T00:29:23;100770.63;;;8.03;100.00
35023;BME280;21214;44.912;8.204;2023-12-28T00:31:48;100767.16;;;8.03;100.00
35023;BME280;21214;44.912;8.204;2023-12-28T00:34:14;100768.94;;;8.02;100.00
35023;BME280;21214;44.912;8.204;2023-12-28T00:36:39;100766.22;;;8.04;100.00
35023;BME280;21214;44.912;8.204;2023-12-28T00:39:05;100760.97;;;8.04;100.00
35023;BME280;21214;44.912;8.204;2023-12-28T00:41:31;100761.81;;;8.04;100.00
35023;BME280;21214;44.912;8.204;2023-12-28T00:43:56;100762.75;;;8.03;100.00
35023;BME280;21214;44.912;8.204;2023-12-28T00:46:22;100764.34;;;8.06;100.00
35023;BME280;21214;44.912;8.204;2023-12-28T00:48:47;100764.34;;;8.06;100.00
35023;BME280;21214;44.912;8.204;2023-12-28T00:51:13;100767.69;;;8.08;100.00
35023;BME280;21214;44.912;8.204;2023-12-28T00:53:39;100766.84;;;8.07;100.00
35023;BME280;21214;44.912;8.204;2023-12-28T00:56:04;100767.69;;;8.08;100.00
35023;BME280;21214;44.912;8.204;2023-12-28T00:58:30;100760.78;;;8.07;100.00
35023;BME280;21214;44.912;8.204;2023-12-28T01:00:57;100761.72;;;8.06;100.00
35023;BME280;21214;44.912;8.204;2023-12-28T01:03:23;100764.53;;;8.03;100.00
35023;BME280;21214;44.912;8.204;2023-12-28T01:05:50;100759.66;;;7.97;100.00
35023;BME280;21214;44.912;8.204;2023-12-28T01:08:17;100759.94;;;7.92;100.00
35023;BME280;21214;44.912;8.204;2023-12-28T01:10:43;100766.44;;;7.87;100.00
35023;BME280;21214;44.912;8.204;2023-12-28T01:13:09;100767.38;;;7.86;100.00
35023;BME280;21214;44.912;8.204;2023-12-28T01:15:35;100768.22;;;7.86;100.00
35023;BME280;21214;44.912;8.204;2023-12-28T01:18:00;100766.34;;;7.88;100.00
35023;BME280;21214;44.912;8.204;2023-12-28T01:20:26;100780.50;;;7.86;100.00
35023;BME280;21214;44.912;8.204;2023-12-28T01:22:52;100772.25;;;7.92;100.00
35023;BME280;21214;44.912;8.204;2023-12-28T01:25:18;100773.09;;;7.92;100.00
35023;BME280;21214;44.912;8.204;2023-12-28T01:27:44;100777.72;;;7.89;100.00
35023;BME280;21214;44.912;8.204;2023-12-28T01:30:09;100770.53;;;7.91;100.00
35023;BME280;21214;44.912;8.204;2023-12-28T01:32:35;100783.59;;;7.92;100.00
35023;BME280;21214;44.912;8.204;2023-12-28T01:35:01;100778.25;;;7.79;100.00
35023;BME280;21214;44.912;8.204;2023-12-28T01:37:27;100775.25;;;7.86;100.00
35023;BME280;21214;44.912;8.204;2023-12-28T01:39:56;100782.75;;;7.92;100.00
35023;BME280;21214;44.912;8.204;2023-12-28T01:42:22;100783.50;;;7.94;100.00
35023;BME280;21214;44.912;8.204;2023-12-28T01:44:48;100787.84;;;7.95;100.00
35023;BME280;21214;44.912;8.204;2023-12-28T01:47:14;100781.81;;;7.93;100.00
35023;BME280;21214;44.912;8.204;2023-12-28T01:49:39;100782.75;;;7.92;100.00
35023;BME280;21214;44.912;8.204;2023-12-28T01:52:06;100793.19;;;7.93;100.00
35023;BME280;21214;44.912;8.204;2023-12-28T01:54:33;100785.38;;;7.92;100.00
35023;BME280;21214;44.912;8.204;2023-12-28T01:57:00;100787.63;;;7.98;100.00
35023;BME280;21214;44.912;8.204;2023-12-28T01:59:27;100787.84;;;7.95;100.00
35023;BME280;21214;44.912;8.204;2023-12-28T02:01:52;100787.75;;;7.82;100.00
35023;BME280;21214;44.912;8.204;2023-12-28T02:04:18;100788.00;;;7.92;100.00
35023;BME280;21214;44.912;8.204;2023-12-28T02:06:54;100781.06;;;7.91;100.00
35023;BME280;21214;44.912;8.204;2023-12-28T02:09:22;100770.94;;;7.85;100.00
35023;BME280;21214;44.912;8.204;2023-12-28T02:11:47;100780.88;;;7.79;100.00
35023;BME280;21214;44.912;8.204;2023-12-28T02:14:13;100786.91;;;7.81;100.00
35023;BME280;21214;44.912;8.204;2023-12-28T02:17:06;100777.13;;;7.83;100.00
35023;BME280;21214;44.912;8.204;2023-12-28T02:19:52;100783.06;;;7.87;100.00
35023;BME280;21214;44.912;8.204;2023-12-28T02:22:21;100769.81;;;7.89;100.00
35023;BME280;21214;44.912;8.204;2023-12-28T02:27:29;100771.31;;;7.93;100.00
35023;BME280;21214;44.912;8.204;2023-12-28T02:29:55;100765.13;;;7.94;100.00
35023;BME280;21214;44.912;8.204;2023-12-28T02:32:28;100766.81;;;7.95;100.00
35023;BME280;21214;44.912;8.204;2023-12-28T02:35:08;100760.72;;;7.94;100.00
35023;BME280;21214;44.912;8.204;2023-12-28T02:37:36;100747.84;;;7.90;100.00
35023;BME280;21214;44.912;8.204;2023-12-28T02:40:03;100750.97;;;7.82;100.00
35023;BME280;21214;44.912;8.204;2023-12-28T02:42:28;100758.94;;;7.80;100.00
35023;BME280;21214;44.912;8.204;2023-12-28T02:44:54;100746.34;;;7.86;100.00
35023;BME280;21214;44.912;8.204;2023-12-28T02:47:20;100740.91;;;7.89;100.00
35023;BME280;21214;44.912;8.204;2023-12-28T02:49:45;100731.44;;;7.86;100.00
35023;BME280;21214;44.912;8.204;2023-12-28T02:52:11;100739.00;;;7.91;100.00
35023;BME280;21214;44.912;8.204;2023-12-28T02:54:36;100737.97;;;7.93;100.00
35023;BME280;21214;44.912;8.204;2023-12-28T02:57:02;100730.19;;;7.92;100.00
35023;BME280;21214;44.912;8.204;2023-12-28T02:59:28;100726.81;;;7.90;100.00
35023;BME280;21214;44.912;8.204;2023-12-28T03:01:53;100727.88;;;7.87;100.00
35023;BME280;21214;44.912;8.204;2023-12-28T03:04:19;100733.97;;;7.88;100.00
35023;BME280;21214;44.912;8.204;2023-12-28T03:06:46;100727.00;;;7.87;100.00
35023;BME280;21214;44.912;8.204;2023-12-28T03:09:12;100730.56;;;7.86;100.00
35023;BME280;21214;44.912;8.204;2023-12-28T03:11:37;100734.91;;;7.87;100.00
35023;BME280;21214;44.912;8.204;2023-12-28T03:14:03;100733.97;;;7.88;100.00
35023;BME280;21214;44.912;8.204;2023-12-28T03:16:29;100723.63;;;7.85;100.00
35023;BME280;21214;44.912;8.204;2023-12-28T03:18:55;100720.44;;;7.79;100.00
35023;BME280;21214;44.912;8.204;2023-12-28T03:21:20;100713.72;;;7.75;100.00
35023;BME280;21214;44.912;8.204;2023-12-28T03:23:45;100704.22;;;7.73;100.00
35023;BME280;21214;44.912;8.204;2023-12-28T03:26:11;100713.88;;;7.72;100.00
35023;BME280;21214;44.912;8.204;2023-12-28T03:28:37;100725.16;;;7.74;100.00
35023;BME280;21214;44.912;8.204;2023-12-28T03:31:03;100719.16;;;7.72;100.00
35023;BME280;21214;44.912;8.204;2023-12-28T03:33:28;100719.91;;;7.74;100.00
35023;BME280;21214;44.912;8.204;2023-12-28T03:35:54;100721.59;;;7.75;100.00
35023;BME280;21214;44.912;8.204;2023-12-28T03:38:19;100718.03;;;7.76;100.00
35023;BME280;21214;44.912;8.204;2023-12-28T03:40:45;100716.13;;;7.78;100.00
35023;BME280;21214;44.912;8.204;2023-12-28T03:43:13;100720.28;;;7.82;100.00
35023;BME280;21214;44.912;8.204;2023-12-28T03:45:38;100721.66;;;7.88;100.00
35023;BME280;21214;44.912;8.204;2023-12-28T03:48:04;100724.09;;;7.91;100.00
35023;BME280;21214;44.912;8.204;2023-12-28T03:50:30;100722.41;;;7.90;100.00
35023;BME280;21214;44.912;8.204;2023-12-28T03:52:56;100724.75;;;7.95;100.00
35023;BME280;21214;44.912;8.204;2023-12-28T03:55:23;100717.81;;;7.94;100.00
35023;BME280;21214;44.912;8.204;2023-12-28T03:57:50;100716.88;;;7.95;100.00
35023;BME280;21214;44.912;8.204;2023-12-28T04:00:16;100720.31;;;7.95;100.00
35023;BME280;21214;44.912;8.204;2023-12-28T04:02:42;100714.41;;;7.92;100.00
35023;BME280;21214;44.912;8.204;2023-12-28T04:05:08;100712.00;;;7.89;100.00
35023;BME280;21214;44.912;8.204;2023-12-28T04:07:33;100716.50;;;7.87;100.00
35023;BME280;21214;44.912;8.204;2023-12-28T04:09:59;100711.63;;;7.80;100.00
35023;BME280;21214;44.912;8.204;2023-12-28T04:12:24;100704.22;;;7.73;100.00
35023;BME280;21214;44.912;8.204;2023-12-28T04:14:50;100694.94;;;7.67;100.00
35023;BME280;21214;44.912;8.204;2023-12-28T04:17:16;100693.25;;;7.66;100.00
35023;BME280;21214;44.912;8.204;2023-12-28T04:19:43;100694.09;;;7.67;100.00
35023;BME280;21214;44.912;8.204;2023-12-28T04:22:08;100694.41;;;7.62;100.00
35023;BME280;21214;44.912;8.204;2023-12-28T04:24:34;100705.84;;;7.61;100.00
35023;BME280;21214;44.912;8.204;2023-12-28T04:26:59;100711.09;;;7.61;100.00
35023;BME280;21214;44.912;8.204;2023-12-28T04:29:25;100703.41;;;7.58;100.00
35023;BME280;21214;44.912;8.204;2023-12-28T04:31:51;100706.78;;;7.60;100.00
35023;BME280;21214;44.912;8.204;2023-12-28T04:34:16;100713.00;;;7.59;100.00
35023;BME280;21214;44.912;8.204;2023-12-28T04:36:42;100718.44;;;7.56;100.00
35023;BME280;21214;44.912;8.204;2023-12-28T04:39:09;100721.25;;;7.53;100.00
35023;BME280;21214;44.912;8.204;2023-12-28T04:41:35;100718.03;;;7.62;100.00
35023;BME280;21214;44.912;8.204;2023-12-28T04:44:01;100715.25;;;7.65;100.00
35023;BME280;21214;44.912;8.204;2023-12-28T04:46:27;100723.13;;;7.65;100.00
35023;BME280;21214;44.912;8.204;2023-12-28T04:48:52;100727.41;;;7.66;100.00
35023;BME280;21214;44.912;8.204;2023-12-28T04:51:18;100722.91;;;7.68;100.00
35023;BME280;21214;44.912;8.204;2023-12-28T04:53:44;100716.81;;;7.68;100.00
35023;BME280;21214;44.912;8.204;2023-12-28T04:56:09;100716.91;;;7.66;100.00
35023;BME280;21214;44.912;8.204;2023-12-28T04:58:35;100720.28;;;7.68;100.00
35023;BME280;21214;44.912;8.204;2023-12-28T05:01:03;100723.94;;;7.66;100.00
35023;BME280;21214;44.912;8.204;2023-12-28T05:03:29;100722.91;;;7.68;100.00
35023;BME280;21214;44.912;8.204;2023-12-28T05:05:54;100720.84;;;7.73;100.00
35023;BME280;21214;44.912;8.204;2023-12-28T05:08:20;100733.81;;;7.76;100.00
35023;BME280;21214;44.912;8.204;2023-12-28T05:10:46;100740.75;;;7.77;100.00
35023;BME280;21214;44.912;8.204;2023-12-28T05:13:12;100744.19;;;7.78;100.00
35023;BME280;21214;44.912;8.204;2023-12-28T05:15:37;100740.94;;;7.60;100.00
35023;BME280;21214;44.912;8.204;2023-12-28T05:18:03;100744.94;;;7.66;100.00
35023;BME280;21214;44.912;8.204;2023-12-28T05:20:29;100750.63;;;7.60;100.00
35023;BME280;21214;44.912;8.204;2023-12-28T05:22:54;100752.56;;;7.70;100.00
35023;BME280;21214;44.912;8.204;2023-12-28T05:25:20;100741.00;;;7.73;100.00
35023;BME280;21214;44.912;8.204;2023-12-28T05:27:46;100749.66;;;7.75;100.00
35023;BME280;21214;44.912;8.204;2023-12-28T05:30:11;100741.69;;;7.76;100.00
35023;BME280;21214;44.912;8.204;2023-12-28T05:32:37;100735.66;;;7.74;100.00
35023;BME280;21214;44.912;8.204;2023-12-28T05:35:03;100736.97;;;7.67;100.00
35023;BME280;21214;44.912;8.204;2023-12-28T05:37:28;100738.41;;;7.59;100.00
35023;BME280;21214;44.912;8.204;2023-12-28T05:39:54;100740.09;;;7.60;100.00
35023;BME280;21214;44.912;8.204;2023-12-28T05:42:19;100749.56;;;7.62;100.00
35023;BME280;21214;44.912;8.204;2023-12-28T05:44:45;100761.38;;;7.55;100.00
35023;BME280;21214;44.912;8.204;2023-12-28T05:47:10;100758.38;;;7.61;100.00
35023;BME280;21214;44.912;8.204;2023-12-28T05:49:37;100761.56;;;7.66;100.00
35023;BME280;21214;44.912;8.204;2023-12-28T05:52:03;100760.91;;;7.63;100.00
35023;BME280;21214;44.912;8.204;2023-12-28T05:54:28;100773.22;;;7.62;100.00
35023;BME280;21214;44.912;8.204;2023-12-28T05:56:54;100761.88;;;7.48;100.00
35023;BME280;21214;44.912;8.204;2023-12-28T05:59:19;100760.81;;;7.50;100.00
35023;BME280;21214;44.912;8.204;2023-12-28T06:01:46;100761.69;;;7.51;100.00
35023;BME280;21214;44.912;8.204;2023-12-28T06:04:12;100761.28;;;7.57;100.00
35023;BME280;21214;44.912;8.204;2023-12-28T06:06:38;100756.81;;;7.59;100.00
35023;BME280;21214;44.912;8.204;2023-12-28T06:09:04;100748.25;;;7.55;100.00
35023;BME280;21214;44.912;8.204;2023-12-28T06:11:29;100741.50;;;7.51;100.00
35023;BME280;21214;44.912;8.204;2023-12-28T06:13:55;100755.41;;;7.53;100.00
35023;BME280;21214;44.912;8.204;2023-12-28T06:16:21;100758.97;;;7.52;100.00
35023;BME280;21214;44.912;8.204;2023-12-28T06:18:46;100766.63;;;7.55;100.00
35023;BME280;21214;44.912;8.204;2023-12-28T06:21:12;100752.94;;;7.50;100.00
35023;BME280;21214;44.912;8.204;2023-12-28T06:23:37;100760.81;;;7.50;100.00
35023;BME280;21214;44.912;8.204;2023-12-28T06:26:06;100760.44;;;7.56;100.00
35023;BME280;21214;44.912;8.204;2023-12-28T06:28:32;100761.22;;;7.58;100.00
35023;BME280;21214;44.912;8.204;2023-12-28T06:30:58;100763.06;;;7.56;100.00
35023;BME280;21214;44.912;8.204;2023-12-28T06:33:27;100755.41;;;7.53;100.00
35023;BME280;21214;44.912;8.204;2023-12-28T06:35:54;100747.31;;;7.56;100.00
35023;BME280;21214;44.912;8.204;2023-12-28T06:38:19;100752.41;;;7.59;100.00
35023;BME280;21214;44.912;8.204;2023-12-28T06:40:45;100753.13;;;7.61;100.00
35023;BME280;21214;44.912;8.204;2023-12-28T06:43:10;100752.94;;;7.64;100.00
35023;BME280;21214;44.912;8.204;2023-12-28T06:45:36;100751.06;;;7.66;100.00
35023;BME280;21214;44.912;8.204;2023-12-28T06:48:01;100752.75;;;7.67;100.00
35023;BME280;21214;44.912;8.204;2023-12-28T06:50:27;100750.88;;;7.69;100.00
35023;BME280;21214;44.912;8.204;2023-12-28T06:52:52;100751.06;;;7.66;100.00
35023;BME280;21214;44.912;8.204;2023-12-28T06:55:18;100749.94;;;7.70;100.00
35023;BME280;21214;44.912;8.204;2023-12-28T06:57:43;100750.66;;;7.72;100.00
35023;BME280;21214;44.912;8.204;2023-12-28T07:00:09;100754.28;;;7.71;100.00
35023;BME280;21214;44.912;8.204;2023-12-28T07:02:35;100747.31;;;7.70;100.00
35023;BME280;21214;44.912;8.204;2023-12-28T07:05:01;100757.81;;;7.70;100.00
35023;BME280;21214;44.912;8.204;2023-12-28T07:07:27;100763.94;;;7.71;100.00
35023;BME280;21214;44.912;8.204;2023-12-28T07:09:52;100764.78;;;7.71;100.00
35023;BME280;21214;44.912;8.204;2023-12-28T07:12:18;100769.19;;;7.71;100.00
35023;BME280;21214;44.912;8.204;2023-12-28T07:14:45;100763.16;;;7.69;100.00
35023;BME280;21214;44.912;8.204;2023-12-28T07:17:11;100762.53;;;7.65;100.00
35023;BME280;21214;44.912;8.204;2023-12-28T07:19:40;100763.47;;;7.64;100.00
35023;BME280;21214;44.912;8.204;2023-12-28T07:22:06;100761.75;;;7.63;100.00
35023;BME280;21214;44.912;8.204;2023-12-28T07:24:32;100771.22;;;7.66;100.00
35023;BME280;21214;44.912;8.204;2023-12-28T07:26:58;100779.03;;;7.67;100.00
35023;BME280;21214;44.912;8.204;2023-12-28T07:29:23;100774.13;;;7.61;100.00
35023;BME280;21214;44.912;8.204;2023-12-28T07:31:49;100771.91;;;7.69;100.00
35023;BME280;21214;44.912;8.204;2023-12-28T07:34:14;100767.50;;;7.70;100.00
35023;BME280;21214;44.912;8.204;2023-12-28T07:36:40;100770.97;;;7.70;100.00
35023;BME280;21214;44.912;8.204;2023-12-28T07:39:09;100767.41;;;7.71;100.00
35023;BME280;21214;44.912;8.204;2023-12-28T07:41:34;100769.28;;;7.69;100.00
35023;BME280;21214;44.912;8.204;2023-12-28T07:44:00;100770.41;;;7.65;100.00
35023;BME280;21214;44.912;8.204;2023-12-28T07:46:26;100766.16;;;7.63;100.00
35023;BME280;21214;44.912;8.204;2023-12-28T07:48:52;100768.16;;;7.59;100.00
35023;BME280;21214;44.912;8.204;2023-12-28T07:51:17;100773.97;;;7.64;100.00
35023;BME280;21214;44.912;8.204;2023-12-28T07:53:43;100771.13;;;7.67;100.00
35023;BME280;21214;44.912;8.204;2023-12-28T07:56:09;100782.13;;;7.74;100.00
35023;BME280;21214;44.912;8.204;2023-12-28T07:58:34;100783.50;;;7.79;100.00
35023;BME280;21214;44.912;8.204;2023-12-28T08:01:03;100785.97;;;7.82;100.00
35023;BME280;21214;44.912;8.204;2023-12-28T08:03:28;100790.09;;;7.87;100.00
35023;BME280;21214;44.912;8.204;2023-12-28T08:05:54;100791.03;;;7.86;100.00
35023;BME280;21214;44.912;8.204;2023-12-28T08:08:20;100794.41;;;7.88;100.00
35023;BME280;21214;44.912;8.204;2023-12-28T08:10:46;100804.84;;;7.89;100.00
35023;BME280;21214;44.912;8.204;2023-12-28T08:13:12;100795.34;;;7.87;100.00
35023;BME280;21214;44.912;8.204;2023-12-28T08:15:37;100798.91;;;7.86;100.00
35023;BME280;21214;44.912;8.204;2023-12-28T08:18:03;100791.88;;;7.86;100.00
35023;BME280;21214;44.912;8.204;2023-12-28T08:20:29;100795.91;;;7.92;100.00
35023;BME280;21214;44.912;8.204;2023-12-28T08:22:55;100796.44;;;7.97;100.00
35023;BME280;21214;44.912;8.204;2023-12-28T08:25:20;100794.19;;;8.05;100.00
35023;BME280;21214;44.912;8.204;2023-12-28T08:27:47;100796.53;;;8.09;100.00
35023;BME280;21214;44.912;8.204;2023-12-28T08:30:13;100795.28;;;8.15;100.00
35023;BME280;21214;44.912;8.204;2023-12-28T08:32:38;100796.78;;;8.19;100.00
35023;BME280;21214;44.912;8.204;2023-12-28T08:35:04;100801.84;;;8.22;100.00
35023;BME280;21214;44.912;8.204;2023-12-28T08:37:29;100812.38;;;8.22;100.00
35023;BME280;21214;44.912;8.204;2023-12-28T08:39:55;100807.13;;;8.22;100.00
35023;BME280;21214;44.912;8.204;2023-12-28T08:42:21;100814.06;;;8.23;100.00
35023;BME280;21214;44.912;8.204;2023-12-28T08:44:46;100813.00;;;8.26;100.00
35023;BME280;21214;44.912;8.204;2023-12-28T08:47:13;100808.59;;;8.26;100.00
35023;BME280;21214;44.912;8.204;2023-12-28T08:49:39;100812.28;;;8.23;100.00
35023;BME280;21214;44.912;8.204;2023-12-28T08:52:04;100808.25;;;8.18;100.00
35023;BME280;21214;44.912;8.204;2023-12-28T08:54:30;100815.31;;;8.17;100.00
35023;BME280;21214;44.912;8.204;2023-12-28T08:56:55;100817.00;;;8.18;100.00
35023;BME280;21214;44.912;8.204;2023-12-28T08:59:20;100822.69;;;8.25;100.00
35023;BME280;21214;44.912;8.204;2023-12-28T09:01:47;100825.94;;;8.30;100.00
35023;BME280;21214;44.912;8.204;2023-12-28T09:04:13;100830.13;;;8.33;100.00
35023;BME280;21214;44.912;8.204;2023-12-28T09:06:39;100823.19;;;8.32;100.00
35023;BME280;21214;44.912;8.204;2023-12-28T09:09:04;100818.94;;;8.29;100.00
35023;BME280;21214;44.912;8.204;2023-12-28T09:11:31;100815.41;;;8.30;100.00
35023;BME280;21214;44.912;8.204;2023-12-28T09:13:57;100826.56;;;8.34;100.00
35023;BME280;21214;44.912;8.204;2023-12-28T09:16:22;100825.72;;;8.33;100.00
35023;BME280;21214;44.912;8.204;2023-12-28T09:18:48;100830.97;;;8.33;100.00
35023;BME280;21214;44.912;8.204;2023-12-28T09:21:13;100832.06;;;8.43;100.00
35023;BME280;21214;44.912;8.204;2023-12-28T09:23:38;100825.56;;;8.49;100.00
35023;BME280;21214;44.912;8.204;2023-12-28T09:26:06;100836.53;;;8.55;100.00
35023;BME280;21214;44.912;8.204;2023-12-28T09:28:32;100829.19;;;8.60;100.00
35023;BME280;21214;44.912;8.204;2023-12-28T09:30:58;100832.97;;;8.56;100.00
35023;BME280;21214;44.912;8.204;2023-12-28T09:33:23;100842.25;;;8.62;100.00
35023;BME280;21214;44.912;8.204;2023-12-28T09:35:49;100835.75;;;8.68;100.00
35023;BME280;21214;44.912;8.204;2023-12-28T09:38:15;100838.19;;;8.71;100.00
35023;BME280;21214;44.912;8.204;2023-12-28T09:40:43;100830.41;;;8.69;100.00
35023;BME280;21214;44.912;8.204;2023-12-28T09:45:34;100826.53;;;8.75;100.00
35023;BME280;21214;44.912;8.204;2023-12-28T09:47:59;100827.81;;;8.82;100.00
35023;BME280;21214;44.912;8.204;2023-12-28T09:50:25;100839.81;;;8.86;100.00
35023;BME280;21214;44.912;8.204;2023-12-28T09:52:52;100829.28;;;8.86;100.00
35023;BME280;21214;44.912;8.204;2023-12-28T09:55:18;100838.34;;;8.82;100.00
35023;BME280;21214;44.912;8.204;2023-12-28T09:57:45;100840.22;;;8.80;100.00
35023;BME280;21214;44.912;8.204;2023-12-28T10:00:12;100823.69;;;8.78;100.00
35023;BME280;21214;44.912;8.204;2023-12-28T10:02:39;100837.69;;;8.78;100.00
35023;BME280;21214;44.912;8.204;2023-12-28T10:05:06;100830.94;;;8.74;100.00
35023;BME280;21214;44.912;8.204;2023-12-28T10:07:35;100830.09;;;8.74;100.00
35023;BME280;21214;44.912;8.204;2023-12-28T10:10:05;100828.22;;;8.76;100.00
35023;BME280;21214;44.912;8.204;2023-12-28T10:12:32;100838.53;;;8.79;100.00
35023;BME280;21214;44.912;8.204;2023-12-28T10:14:57;100845.47;;;8.80;100.00
35023;BME280;21214;44.912;8.204;2023-12-28T10:17:23;100839.06;;;8.71;100.00
35023;BME280;21214;44.912;8.204;2023-12-28T10:19:49;100834.91;;;8.67;100.00
35023;BME280;21214;44.912;8.204;2023-12-28T10:22:14;100825.59;;;8.76;100.00
35023;BME280;21214;44.912;8.204;2023-12-28T10:24:43;100830.31;;;8.71;100.00
35023;BME280;21214;44.912;8.204;2023-12-28T10:27:09;100829.56;;;8.69;100.00
35023;BME280;21214;44.912;8.204;2023-12-28T10:29:36;100833.03;;;8.69;100.00
35023;BME280;21214;44.912;8.204;2023-12-28T10:32:01;100826.81;;;8.70;100.00
35023;BME280;21214;44.912;8.204;2023-12-28T10:34:26;100820.63;;;8.71;100.00
35023;BME280;21214;44.912;8.204;2023-12-28T10:36:52;100814.53;;;8.71;100.00
35023;BME280;21214;44.912;8.204;2023-12-28T10:39:20;100805.56;;;8.73;100.00
35023;BME280;21214;44.912;8.204;2023-12-28T10:41:49;100806.94;;;8.79;100.00
35023;BME280;21214;44.912;8.204;2023-12-28T10:44:18;100808.44;;;8.83;100.00
35023;BME280;21214;44.912;8.204;2023-12-28T10:46:45;100809.00;;;8.88;100.00
35023;BME280;21214;44.912;8.204;2023-12-28T10:49:16;100807.81;;;8.92;100.00
35023;BME280;21214;44.912;8.204;2023-12-28T10:51:42;100800.88;;;8.91;100.00
35023;BME280;21214;44.912;8.204;2023-12-28T10:54:20;100798.25;;;8.91;100.00
35023;BME280;21214;44.912;8.204;2023-12-28T10:57:06;100791.84;;;8.95;100.00
35023;BME280;21214;44.912;8.204;2023-12-28T11:02:38;100776.88;;;9.08;100.00
35023;BME280;21214;44.912;8.204;2023-12-28T11:05:05;100775.00;;;9.10;100.00
35023;BME280;21214;44.912;8.204;2023-12-28T11:07:32;100775.63;;;9.14;100.00
35023;BME280;21214;44.912;8.204;2023-12-28T11:10:02;100767.44;;;9.18;100.00
35023;BME280;21214;44.912;8.204;2023-12-28T11:12:30;100760.06;;;9.23;100.00
35023;BME280;21214;44.912;8.204;2023-12-28T11:14:57;100757.09;;;9.28;100.00
35023;BME280;21214;44.912;8.204;2023-12-28T11:17:23;100751.41;;;9.34;100.00
35023;BME280;21214;44.912;8.204;2023-12-28T11:19:51;100748.78;;;9.34;100.00
35023;BME280;21214;44.912;8.204;2023-12-28T11:22:19;100748.56;;;9.37;100.00
35023;BME280;21214;44.912;8.204;2023-12-28T11:24:45;100750.91;;;9.41;100.00
35023;BME280;21214;44.912;8.204;2023-12-28T11:27:11;100756.69;;;9.47;100.00
35023;BME280;21214;44.912;8.204;2023-12-28T11:29:38;100752.69;;;9.54;100.00
35023;BME280;21214;44.912;8.204;2023-12-28T11:32:03;100752.44;;;9.57;100.00
35023;BME280;21214;44.912;8.204;2023-12-28T11:34:30;100739.78;;;9.62;100.00
35023;BME280;21214;44.912;8.204;2023-12-28T11:36:58;100740.53;;;9.64;100.00
35023;BME280;21214;44.912;8.204;2023-12-28T11:39:32;100737.66;;;9.67;100.00
35023;BME280;21214;44.912;8.204;2023-12-28T11:42:05;100719.97;;;9.56;100.00
35023;BME280;21214;44.912;8.204;2023-12-28T11:44:31;100727.38;;;9.51;100.00
35023;BME280;21214;44.912;8.204;2023-12-28T11:47:11;100722.84;;;9.53;100.00
35023;BME280;21214;44.912;8.204;2023-12-28T11:49:37;100712.94;;;9.57;100.00
35023;BME280;21214;44.912;8.204;2023-12-28T11:52:02;100716.44;;;9.32;100.00
35023;BME280;21214;44.912;8.204;2023-12-28T11:54:30;100709.25;;;9.47;100.00
35023;BME280;21214;44.912;8.204;2023-12-28T11:56:55;100701.78;;;9.40;100.00
35023;BME280;21214;44.912;8.204;2023-12-28T11:59:21;100707.34;;;9.49;100.00
35023;BME280;21214;44.912;8.204;2023-12-28T12:01:50;100715.16;;;9.50;100.00
35023;BME280;21214;44.912;8.204;2023-12-28T12:04:17;100724.13;;;9.48;100.00
35023;BME280;21214;44.912;8.204;2023-12-28T12:06:44;100719.28;;;9.41;100.00
35023;BME280;21214;44.912;8.204;2023-12-28T12:09:11;100718.97;;;9.33;100.00
35023;BME280;21214;44.912;8.204;2023-12-28T12:11:36;100717.59;;;9.40;100.00
35023;BME280;21214;44.912;8.204;2023-12-28T12:14:03;100713.03;;;9.42;100.00
35023;BME280;21214;44.912;8.204;2023-12-28T12:16:31;100706.81;;;9.43;100.00
35023;BME280;21214;44.912;8.204;2023-12-28T12:18:57;100705.03;;;9.44;100.00
35023;BME280;21214;44.912;8.204;2023-12-28T12:21:23;100687.34;;;9.46;100.00
35023;BME280;21214;44.912;8.204;2023-12-28T12:23:49;100686.25;;;9.49;100.00
35023;BME280;21214;44.912;8.204;2023-12-28T12:26:18;100686.06;;;9.52;100.00
35023;BME280;21214;44.912;8.204;2023-12-28T12:28:44;100682.69;;;9.50;100.00
35023;BME280;21214;44.912;8.204;2023-12-28T12:31:10;100668.78;;;9.48;100.00
35023;BME280;21214;44.912;8.204;2023-12-28T12:33:36;100665.41;;;9.45;100.00
35023;BME280;21214;44.912;8.204;2023-12-28T12:36:04;100671.53;;;9.46;100.00
35023;BME280;21214;44.912;8.204;2023-12-28T12:38:31;100679.53;;;9.44;100.00
35023;BME280;21214;44.912;8.204;2023-12-28T12:40:58;100674.06;;;9.48;100.00
35023;BME280;21214;44.912;8.204;2023-12-28T12:43:23;100672.16;;;9.50;100.00
35023;BME280;21214;44.912;8.204;2023-12-28T12:45:50;100673.84;;;9.51;100.00
35023;BME280;21214;44.912;8.204;2023-12-28T12:48:16;100679.09;;;9.51;100.00
35023;BME280;21214;44.912;8.204;2023-12-28T12:50:43;100675.53;;;9.52;100.00
35023;BME280;21214;44.912;8.204;2023-12-28T12:53:08;100674.69;;;9.51;100.00